createdAt,value
2017-07-08T00:01:22.131Z,72.90
2017-07-08T00:03:50.346Z,73.10
2017-07-08T00:06:18.566Z,72.90
2017-07-08T00:08:46.813Z,73.50
2017-07-08T00:11:15.022Z,74.00
2017-07-08T00:13:43.245Z,74.60
2017-07-08T00:16:11.455Z,74.60
2017-07-08T00:18:39.794Z,75.30
2017-07-08T00:21:08.008Z,76.00
2017-07-08T00:23:36.532Z,76.00
2017-07-08T00:26:05.505Z,76.40
2017-07-08T00:28:33.708Z,76.30
2017-07-08T00:31:01.941Z,75.80
2017-07-08T00:33:30.464Z,75.40
2017-07-08T00:35:59.439Z,75.40
2017-07-08T00:38:27.643Z,75.40
2017-07-08T00:40:55.854Z,75.40
2017-07-08T00:43:24.061Z,75.80
2017-07-08T00:45:52.458Z,75.60
2017-07-08T00:48:21.426Z,75.80
2017-07-08T00:50:49.839Z,75.70
2017-07-08T00:53:18.105Z,76.10
2017-07-08T00:55:47.079Z,76.80
2017-07-08T00:58:15.283Z,76.70
2017-07-08T01:00:43.557Z,77.10
2017-07-08T01:03:12.538Z,78.20
2017-07-08T01:05:40.745Z,78.20
2017-07-08T01:08:09.029Z,78.60
2017-07-08T01:10:37.257Z,79.10
2017-07-08T01:13:05.455Z,79.00
2017-07-08T01:15:33.838Z,79.20
2017-07-08T01:18:02.801Z,80.20
2017-07-08T01:20:31.026Z,80.10
2017-07-08T01:22:59.286Z,80.70
2017-07-08T01:25:27.779Z,80.90
2017-07-08T01:27:56.080Z,81.00
2017-07-08T01:30:24.282Z,81.20
2017-07-08T01:32:52.483Z,81.00
2017-07-08T01:35:20.766Z,80.80
2017-07-08T01:37:48.985Z,80.70
2017-07-08T01:40:17.217Z,80.20
2017-07-08T01:42:46.203Z,79.80
2017-07-08T01:45:14.426Z,79.80
2017-07-08T01:47:42.636Z,79.80
2017-07-08T01:50:10.836Z,79.50
2017-07-08T01:52:39.237Z,79.30
2017-07-08T01:55:08.208Z,79.50
2017-07-08T01:57:36.438Z,79.30
2017-07-08T02:00:04.642Z,79.50
2017-07-08T02:02:32.955Z,79.50
2017-07-08T02:05:01.949Z,79.30
2017-07-08T02:07:30.327Z,79.30
2017-07-08T02:09:59.332Z,79.60
2017-07-08T02:12:27.535Z,79.60
2017-07-08T02:14:55.779Z,79.80
2017-07-08T02:17:24.078Z,79.50
2017-07-08T02:19:52.280Z,79.30
2017-07-08T02:22:20.493Z,79.70
2017-07-08T02:24:48.700Z,79.40
2017-07-08T02:27:16.908Z,79.60
2017-07-08T02:29:45.240Z,80.40
2017-07-08T02:32:14.208Z,80.10
2017-07-08T02:34:42.418Z,79.90
2017-07-08T02:37:10.696Z,79.80
2017-07-08T02:39:39.680Z,79.80
2017-07-08T02:42:07.882Z,79.80
2017-07-08T02:44:36.093Z,80.20
2017-07-08T02:47:04.411Z,79.80
2017-07-08T02:49:33.502Z,80.20
2017-07-08T02:52:02.490Z,79.90
2017-07-08T02:54:30.904Z,80.60
2017-07-08T02:56:59.120Z,79.90
2017-07-08T02:59:27.356Z,80.30
2017-07-08T03:01:55.719Z,80.20
2017-07-08T03:04:24.001Z,80.00
2017-07-08T03:06:52.289Z,80.70
2017-07-08T03:09:20.505Z,79.40
2017-07-08T03:11:48.699Z,79.60
2017-07-08T03:14:16.903Z,79.70
2017-07-08T03:16:45.183Z,80.20
2017-07-08T03:19:14.150Z,80.10
2017-07-08T03:21:42.362Z,80.10
2017-07-08T03:24:10.572Z,80.10
2017-07-08T03:26:38.779Z,80.00
2017-07-08T03:29:06.988Z,79.80
2017-07-08T03:31:35.204Z,80.00
2017-07-08T03:34:03.430Z,79.90
2017-07-08T03:36:31.627Z,79.80
2017-07-08T03:38:59.864Z,79.70
2017-07-08T03:41:28.153Z,79.80
2017-07-08T03:43:57.122Z,80.60
2017-07-08T03:46:25.346Z,80.00
2017-07-08T03:48:53.551Z,80.30
2017-07-08T03:51:21.885Z,79.80
2017-07-08T03:53:50.862Z,79.70
2017-07-08T03:56:19.070Z,79.60
2017-07-08T03:58:47.335Z,79.70
2017-07-08T04:01:15.615Z,79.60
2017-07-08T04:03:43.887Z,79.60
2017-07-08T04:06:12.169Z,79.10
2017-07-08T04:08:40.454Z,79.50
2017-07-08T04:11:08.653Z,79.50
2017-07-08T04:13:36.868Z,79.10
2017-07-08T04:16:05.362Z,79.10
2017-07-08T04:18:33.528Z,78.60
2017-07-08T04:21:01.754Z,78.40
2017-07-08T04:23:29.940Z,77.70
2017-07-08T04:25:58.153Z,77.40
2017-07-08T04:28:27.315Z,77.20
2017-07-08T04:30:55.522Z,77.10
2017-07-08T04:33:23.727Z,75.40
2017-07-08T04:35:51.934Z,75.50
2017-07-08T04:38:20.170Z,74.80
2017-07-08T04:40:48.473Z,75.40
2017-07-08T04:43:16.942Z,76.00
2017-07-08T04:45:45.232Z,75.30
2017-07-08T04:48:13.435Z,74.90
2017-07-08T04:50:41.770Z,74.70
2017-07-08T04:53:10.874Z,75.50
2017-07-08T04:55:39.970Z,76.30
2017-07-08T04:58:08.218Z,76.20
2017-07-08T05:00:36.424Z,76.40
2017-07-08T05:03:04.639Z,75.80
2017-07-08T05:05:32.855Z,76.20
2017-07-08T05:08:01.146Z,76.10
2017-07-08T05:10:30.118Z,76.70
2017-07-08T05:12:58.316Z,76.60
2017-07-08T05:15:27.296Z,75.50
2017-07-08T05:17:55.500Z,75.00
2017-07-08T05:20:23.724Z,74.60
2017-07-08T05:22:52.044Z,73.90
2017-07-08T05:25:21.024Z,68.40
2017-07-08T05:27:49.417Z,68.40
2017-07-08T05:30:18.385Z,65.30
2017-07-08T05:32:46.631Z,65.30
2017-07-08T05:35:14.826Z,65.30
2017-07-08T05:37:43.020Z,64.60
2017-07-08T05:40:11.233Z,62.00
2017-07-08T05:42:39.432Z,58.00
2017-07-08T05:45:07.656Z,54.80
2017-07-08T05:47:35.864Z,51.10
2017-07-08T05:50:04.067Z,49.00
2017-07-08T05:52:32.296Z,47.10
2017-07-08T05:55:00.526Z,47.00
2017-07-08T05:57:28.719Z,46.30
2017-07-08T05:59:56.922Z,44.10
2017-07-08T06:02:25.130Z,43.80
2017-07-08T06:04:53.378Z,43.90
2017-07-08T06:07:22.347Z,40.10
2017-07-08T06:09:50.551Z,40.10
2017-07-08T06:12:19.512Z,36.30
2017-07-08T06:14:47.712Z,36.30
2017-07-08T06:17:16.815Z,35.20
2017-07-08T06:19:45.780Z,34.50
2017-07-08T06:22:13.999Z,34.40
2017-07-08T06:24:42.982Z,33.90
2017-07-08T06:27:11.198Z,35.10
2017-07-08T06:29:39.435Z,33.50
2017-07-08T06:32:07.638Z,34.10
2017-07-08T06:34:35.849Z,31.50
2017-07-08T06:37:04.164Z,31.60
2017-07-08T06:39:32.440Z,31.20
2017-07-08T06:42:00.628Z,30.10
2017-07-08T06:44:28.894Z,30.60
2017-07-08T06:46:57.885Z,27.50
2017-07-08T06:49:26.077Z,27.40
2017-07-08T06:51:55.062Z,26.20
2017-07-08T06:54:23.282Z,26.00
2017-07-08T06:56:51.493Z,25.40
2017-07-08T06:59:19.712Z,25.40
2017-07-08T07:01:47.924Z,24.50
2017-07-08T07:04:16.115Z,25.80
2017-07-08T07:06:45.091Z,23.50
2017-07-08T07:09:13.297Z,23.50
2017-07-08T07:11:41.578Z,24.30
2017-07-08T07:14:09.794Z,25.90
2017-07-08T07:16:38.003Z,26.90
2017-07-08T07:19:06.212Z,27.00
2017-07-08T07:21:34.424Z,27.20
2017-07-08T07:24:02.694Z,27.40
2017-07-08T07:26:30.913Z,27.00
2017-07-08T07:28:59.115Z,27.80
2017-07-08T07:31:27.367Z,29.60
2017-07-08T07:33:55.564Z,32.40
2017-07-08T07:36:23.767Z,35.10
2017-07-08T07:38:51.967Z,37.40
2017-07-08T07:41:20.639Z,38.30
2017-07-08T07:43:48.827Z,39.20
2017-07-08T07:46:17.039Z,40.20
2017-07-08T07:48:45.467Z,41.40
2017-07-08T07:51:14.440Z,42.70
2017-07-08T07:53:42.650Z,42.60
2017-07-08T07:56:10.862Z,44.00
2017-07-08T07:58:39.078Z,42.90
2017-07-08T08:01:07.266Z,41.80
2017-07-08T08:03:35.565Z,41.70
2017-07-08T08:06:03.786Z,42.20
2017-07-08T08:08:32.000Z,41.20
2017-07-08T08:11:00.190Z,40.80
2017-07-08T08:13:28.394Z,39.70
2017-07-08T08:15:56.603Z,38.70
2017-07-08T08:18:24.818Z,38.40
2017-07-08T08:20:53.013Z,38.60
2017-07-08T08:23:21.219Z,40.60
2017-07-08T08:25:49.421Z,38.40
2017-07-08T08:28:18.571Z,40.10
2017-07-08T08:30:46.809Z,40.10
2017-07-08T08:33:15.047Z,38.70
2017-07-08T08:35:43.365Z,39.30
2017-07-08T08:38:12.349Z,34.70
2017-07-08T08:40:40.615Z,34.70
2017-07-08T08:43:08.786Z,31.80
2017-07-08T08:45:36.990Z,29.30
2017-07-08T08:48:05.970Z,27.40
2017-07-08T08:50:34.176Z,27.30
2017-07-08T08:53:02.372Z,26.70
2017-07-08T08:55:30.578Z,26.60
2017-07-08T08:57:58.797Z,26.20
2017-07-08T09:00:27.085Z,25.30
2017-07-08T09:02:55.327Z,24.80
2017-07-08T09:05:23.633Z,24.90
2017-07-08T09:07:51.830Z,24.80
2017-07-08T09:10:20.055Z,25.50
2017-07-08T09:12:48.266Z,25.30
2017-07-08T09:15:16.510Z,25.50
2017-07-08T09:17:44.732Z,25.70
2017-07-08T09:20:12.987Z,25.50
2017-07-08T09:22:41.961Z,25.70
2017-07-08T09:25:10.180Z,25.60
2017-07-08T09:27:38.512Z,27.10
2017-07-08T09:30:06.680Z,27.10
2017-07-08T09:32:34.891Z,26.50
2017-07-08T09:35:03.347Z,26.10
2017-07-08T09:37:31.530Z,26.00
2017-07-08T09:39:59.820Z,25.20
2017-07-08T09:42:28.802Z,23.90
2017-07-08T09:44:57.759Z,23.30
2017-07-08T09:47:25.973Z,23.30
2017-07-08T09:49:54.178Z,24.80
2017-07-08T09:52:22.385Z,23.40
2017-07-08T09:54:50.579Z,24.00
2017-07-08T09:57:18.790Z,25.40
2017-07-08T09:59:47.053Z,26.00
2017-07-08T10:02:16.030Z,26.10
2017-07-08T10:04:44.241Z,26.10
2017-07-08T10:07:12.501Z,27.40
2017-07-08T10:09:40.710Z,27.30
2017-07-08T10:12:08.936Z,27.60
2017-07-08T10:14:37.138Z,27.80
2017-07-08T10:17:05.343Z,27.10
2017-07-08T10:19:33.551Z,27.90
2017-07-08T10:22:01.862Z,27.80
2017-07-08T10:24:30.129Z,28.70
2017-07-08T10:26:59.141Z,27.40
2017-07-08T10:29:27.339Z,27.40
2017-07-08T10:31:55.535Z,27.40
2017-07-08T10:34:23.860Z,25.40
2017-07-08T10:36:52.063Z,25.90
2017-07-08T10:39:20.431Z,25.30
2017-07-08T10:41:48.631Z,22.90
2017-07-08T10:44:16.860Z,22.90
2017-07-08T10:46:45.063Z,21.80
2017-07-08T10:49:13.249Z,20.70
2017-07-08T10:51:41.464Z,22.00
2017-07-08T10:54:09.724Z,22.20
2017-07-08T10:56:37.935Z,23.10
2017-07-08T10:59:06.264Z,23.50
2017-07-08T11:01:34.445Z,26.40
2017-07-08T11:04:02.646Z,23.00
2017-07-08T11:06:30.841Z,23.30
2017-07-08T11:08:59.059Z,24.10
2017-07-08T11:11:27.382Z,23.80
2017-07-08T11:13:56.417Z,23.90
2017-07-08T11:16:24.763Z,23.90
2017-07-08T11:18:53.236Z,26.90
2017-07-08T11:21:22.226Z,27.10
2017-07-08T11:23:50.423Z,27.10
2017-07-08T11:26:18.652Z,28.20
2017-07-08T11:28:46.978Z,27.60
2017-07-08T11:31:15.183Z,32.10
2017-07-08T11:33:43.370Z,30.20
2017-07-08T11:36:11.613Z,28.20
2017-07-08T11:38:39.886Z,27.20
2017-07-08T11:41:08.083Z,28.60
2017-07-08T11:43:36.324Z,28.10
2017-07-08T11:46:04.495Z,28.40
2017-07-08T11:48:33.464Z,27.40
2017-07-08T11:51:01.697Z,27.40
2017-07-08T11:53:29.918Z,26.90
2017-07-08T11:55:58.118Z,28.50
2017-07-08T11:58:26.326Z,27.10
2017-07-08T12:00:54.540Z,27.60
2017-07-08T12:03:22.843Z,27.10
2017-07-08T12:05:51.825Z,27.50
2017-07-08T12:08:20.043Z,27.50
2017-07-08T12:10:48.246Z,27.30
2017-07-08T12:13:16.462Z,26.90
2017-07-08T12:15:44.671Z,27.80
2017-07-08T12:18:12.936Z,27.60
2017-07-08T12:20:41.207Z,28.20
2017-07-08T12:23:09.434Z,28.00
2017-07-08T12:25:37.766Z,29.50
2017-07-08T12:28:05.994Z,28.10
2017-07-08T12:30:34.206Z,31.70
2017-07-08T12:33:02.438Z,28.80
2017-07-08T12:35:31.694Z,30.00
2017-07-08T12:38:00.654Z,30.00
2017-07-08T12:40:28.864Z,30.00
2017-07-08T12:42:57.838Z,29.70
2017-07-08T12:45:26.060Z,29.70
2017-07-08T12:47:54.267Z,30.70
2017-07-08T12:50:22.670Z,30.10
2017-07-08T12:52:50.857Z,31.20
2017-07-08T12:55:19.152Z,30.80
2017-07-08T12:57:47.360Z,31.50
2017-07-08T13:00:15.567Z,31.90
2017-07-08T13:02:43.779Z,31.00
2017-07-08T13:05:12.049Z,30.30
2017-07-08T13:07:41.003Z,28.80
2017-07-08T13:10:09.229Z,28.80
2017-07-08T13:12:37.451Z,29.10
2017-07-08T13:15:05.651Z,34.40
2017-07-08T13:17:33.874Z,31.60
2017-07-08T13:20:02.085Z,32.10
2017-07-08T13:22:30.318Z,30.90
2017-07-08T13:24:58.508Z,30.00
2017-07-08T13:27:26.773Z,31.40
2017-07-08T13:29:55.040Z,30.70
2017-07-08T13:32:23.236Z,32.60
2017-07-08T13:34:51.454Z,32.00
2017-07-08T13:37:19.662Z,30.60
2017-07-08T13:39:47.881Z,29.50
2017-07-08T13:42:16.101Z,30.60
2017-07-08T13:44:44.306Z,29.20
2017-07-08T13:47:12.540Z,31.10
2017-07-08T13:49:40.746Z,31.00
2017-07-08T13:52:08.963Z,30.80
2017-07-08T13:54:37.171Z,29.70
2017-07-08T13:57:05.403Z,29.60
2017-07-08T13:59:33.633Z,29.80
2017-07-08T14:02:01.841Z,29.90
2017-07-08T14:04:30.080Z,30.50
2017-07-08T14:06:58.294Z,30.50
2017-07-08T14:09:26.498Z,29.70
2017-07-08T14:11:54.711Z,28.60
2017-07-08T14:14:23.673Z,30.10
2017-07-08T14:16:51.900Z,30.10
2017-07-08T14:19:20.190Z,31.10
2017-07-08T14:21:48.451Z,32.50
2017-07-08T14:24:16.659Z,34.10
2017-07-08T14:26:44.869Z,33.60
2017-07-08T14:29:13.080Z,35.10
2017-07-08T14:31:41.282Z,35.30
2017-07-08T14:34:09.482Z,32.50
2017-07-08T14:36:37.701Z,35.10
2017-07-08T14:39:06.679Z,34.10
2017-07-08T14:41:34.878Z,34.10
2017-07-08T14:44:03.093Z,32.80
2017-07-08T14:46:31.307Z,34.40
2017-07-08T14:48:59.709Z,35.10
2017-07-08T14:51:27.964Z,36.00
2017-07-08T14:53:56.187Z,33.00
2017-07-08T14:56:24.398Z,33.20
2017-07-08T14:58:52.601Z,34.10
2017-07-08T15:01:21.581Z,35.20
2017-07-08T15:03:49.774Z,35.10
2017-07-08T15:06:18.039Z,36.50
2017-07-08T15:08:47.033Z,35.40
2017-07-08T15:11:15.232Z,35.30
2017-07-08T15:13:44.215Z,34.60
2017-07-08T15:16:12.419Z,34.60
2017-07-08T15:18:40.628Z,34.20
2017-07-08T15:21:08.831Z,34.80
2017-07-08T15:23:37.042Z,33.20
2017-07-08T15:26:05.287Z,35.50
2017-07-08T15:28:33.519Z,33.60
2017-07-08T15:31:01.742Z,34.20
2017-07-08T15:33:29.939Z,35.80
2017-07-08T15:35:58.156Z,33.60
2017-07-08T15:38:26.375Z,32.40
2017-07-08T15:40:54.606Z,34.10
2017-07-08T15:43:22.814Z,32.80
2017-07-08T15:45:51.012Z,32.70
2017-07-08T15:48:19.240Z,35.10
2017-07-08T15:50:47.434Z,33.10
2017-07-08T15:53:15.659Z,34.00
2017-07-08T15:55:44.022Z,35.80
2017-07-08T15:58:12.338Z,35.20
2017-07-08T16:00:40.555Z,35.60
2017-07-08T16:03:08.840Z,35.00
2017-07-08T16:05:37.809Z,35.00
2017-07-08T16:08:06.033Z,35.00
2017-07-08T16:10:34.252Z,34.70
2017-07-08T16:13:02.601Z,36.30
2017-07-08T16:15:30.814Z,35.60
2017-07-08T16:17:59.012Z,35.60
2017-07-08T16:20:27.262Z,35.80
2017-07-08T16:22:55.493Z,33.90
2017-07-08T16:25:23.792Z,33.30
2017-07-08T16:27:52.003Z,33.90
2017-07-08T16:30:20.237Z,34.40
2017-07-08T16:32:48.432Z,34.50
2017-07-08T16:35:16.660Z,33.90
2017-07-08T16:37:44.918Z,34.60
2017-07-08T16:40:13.206Z,33.70
2017-07-08T16:42:42.197Z,33.70
2017-07-08T16:45:10.397Z,33.50
2017-07-08T16:47:38.613Z,35.40
2017-07-08T16:50:06.939Z,35.60
2017-07-08T16:52:35.230Z,35.20
2017-07-08T16:55:04.323Z,34.10
2017-07-08T16:57:33.278Z,36.10
2017-07-08T17:00:01.491Z,36.10
2017-07-08T17:02:29.708Z,34.20
2017-07-08T17:04:57.927Z,36.00
2017-07-08T17:07:26.148Z,35.70
2017-07-08T17:09:54.346Z,36.20
2017-07-08T17:12:22.555Z,37.00
2017-07-08T17:14:50.775Z,36.90
2017-07-08T17:17:19.007Z,37.10
2017-07-08T17:19:47.999Z,37.90
2017-07-08T17:22:16.405Z,38.30
2017-07-08T17:24:45.376Z,38.90
2017-07-08T17:27:13.610Z,38.80
2017-07-08T17:29:41.812Z,39.30
2017-07-08T17:32:10.014Z,38.40
2017-07-08T17:34:38.275Z,39.90
2017-07-08T17:37:07.979Z,41.80
2017-07-08T17:39:36.197Z,41.80
2017-07-08T17:42:04.419Z,41.20
2017-07-08T17:44:32.625Z,42.70
2017-07-08T17:47:00.843Z,41.90
2017-07-08T17:49:29.103Z,42.00
2017-07-08T17:51:57.367Z,42.00
2017-07-08T17:54:26.348Z,46.00
2017-07-08T17:56:54.559Z,46.00
2017-07-08T17:59:22.842Z,42.70
2017-07-08T18:01:51.110Z,42.70
2017-07-08T18:04:19.365Z,43.30
2017-07-08T18:06:47.680Z,43.70
2017-07-08T18:09:15.885Z,42.20
2017-07-08T18:11:44.206Z,43.70
2017-07-08T18:14:12.407Z,43.90
2017-07-08T18:16:40.765Z,43.80
2017-07-08T18:19:08.982Z,45.50
2017-07-08T18:21:37.190Z,45.70
2017-07-08T18:24:05.414Z,44.40
2017-07-08T18:26:33.613Z,47.50
2017-07-08T18:29:01.814Z,47.40
2017-07-08T18:31:30.235Z,50.00
2017-07-08T18:33:58.530Z,50.20
2017-07-08T18:36:26.871Z,49.90
2017-07-08T18:38:55.100Z,51.10
2017-07-08T18:41:23.365Z,52.50
2017-07-08T18:43:51.568Z,50.30
2017-07-08T18:46:19.918Z,52.50
2017-07-08T18:48:48.201Z,52.10
2017-07-08T18:51:16.520Z,51.50
2017-07-08T18:53:44.736Z,52.50
2017-07-08T18:56:13.014Z,54.00
2017-07-08T18:58:41.274Z,53.60
2017-07-08T19:01:10.247Z,57.90
2017-07-08T19:03:38.468Z,57.30
2017-07-08T19:06:06.673Z,56.20
2017-07-08T19:08:34.886Z,57.40
2017-07-08T19:11:03.104Z,57.80
2017-07-08T19:13:31.401Z,57.00
2017-07-08T19:16:00.384Z,58.10
2017-07-08T19:18:28.611Z,58.00
2017-07-08T19:20:56.856Z,58.30
2017-07-08T19:23:25.145Z,59.40
2017-07-08T19:25:53.339Z,59.60
2017-07-08T19:28:21.562Z,60.00
2017-07-08T19:30:49.880Z,59.90
2017-07-08T19:33:18.081Z,59.10
2017-07-08T19:35:46.305Z,59.60
2017-07-08T19:38:15.282Z,59.00
2017-07-08T19:40:43.569Z,58.90
2017-07-08T19:43:11.759Z,60.30
2017-07-08T19:45:40.064Z,59.60
2017-07-08T19:48:08.276Z,61.80
2017-07-08T19:50:36.487Z,60.50
2017-07-08T19:53:04.799Z,61.20
2017-07-08T19:55:32.992Z,60.10
2017-07-08T19:58:02.047Z,60.90
2017-07-08T20:00:30.266Z,60.90
2017-07-08T20:02:58.464Z,60.50
2017-07-08T20:05:26.689Z,60.60
2017-07-08T20:07:54.957Z,62.20
2017-07-08T20:10:23.188Z,61.50
2017-07-08T20:12:51.395Z,60.90
2017-07-08T20:15:19.604Z,61.10
2017-07-08T20:17:47.813Z,61.30
2017-07-08T20:20:16.018Z,62.10
2017-07-08T20:22:44.279Z,59.40
2017-07-08T20:25:12.511Z,58.10
2017-07-08T20:27:40.703Z,61.10
2017-07-08T20:30:08.933Z,61.30
2017-07-08T20:32:37.142Z,61.80
2017-07-08T20:35:05.371Z,61.80
2017-07-08T20:37:33.709Z,61.20
2017-07-08T20:40:01.949Z,62.10
2017-07-08T20:42:30.167Z,62.30
2017-07-08T20:44:58.370Z,62.00
2017-07-08T20:47:26.577Z,62.00
2017-07-08T20:49:54.790Z,61.80
2017-07-08T20:52:23.004Z,61.20
2017-07-08T20:54:51.985Z,64.40
2017-07-08T20:57:20.183Z,63.70
2017-07-08T20:59:48.405Z,63.00
2017-07-08T21:02:17.397Z,62.70
2017-07-08T21:04:45.589Z,62.70
2017-07-08T21:07:13.945Z,63.60
2017-07-08T21:09:42.202Z,63.40
2017-07-08T21:12:11.237Z,63.60
2017-07-08T21:14:39.449Z,63.60
2017-07-08T21:17:07.781Z,63.60
2017-07-08T21:19:36.764Z,63.90
2017-07-08T21:22:04.980Z,63.80
2017-07-08T21:24:33.193Z,63.40
2017-07-08T21:27:02.367Z,64.40
2017-07-08T21:29:30.597Z,64.30
2017-07-08T21:31:59.240Z,64.50
2017-07-08T21:34:27.458Z,64.70
2017-07-08T21:36:57.248Z,63.20
2017-07-08T21:39:25.438Z,63.10
2017-07-08T21:41:53.706Z,63.60
2017-07-08T21:44:22.018Z,63.40
2017-07-08T21:46:50.247Z,62.20
2017-07-08T21:49:19.225Z,64.90
2017-07-08T21:51:47.435Z,64.80
2017-07-08T21:54:15.636Z,63.80
2017-07-08T21:56:43.958Z,62.70
2017-07-08T21:59:12.219Z,62.80
2017-07-08T22:01:41.215Z,63.50
2017-07-08T22:04:09.414Z,63.40
2017-07-08T22:06:37.751Z,63.70
2017-07-08T22:09:05.937Z,63.30
2017-07-08T22:11:34.220Z,64.20
2017-07-08T22:14:03.180Z,64.90
2017-07-08T22:16:31.378Z,64.80
2017-07-08T22:18:59.681Z,64.70
2017-07-08T22:21:27.865Z,65.10
2017-07-08T22:23:56.255Z,65.80
2017-07-08T22:26:24.460Z,65.10
2017-07-08T22:28:52.666Z,65.40
2017-07-08T22:31:20.866Z,66.60
2017-07-08T22:33:49.065Z,65.80
2017-07-08T22:36:17.267Z,67.00
2017-07-08T22:38:45.482Z,67.60
2017-07-08T22:41:13.743Z,67.30
2017-07-08T22:43:42.731Z,67.70
2017-07-08T22:46:10.926Z,68.10
2017-07-08T22:48:40.022Z,68.40
2017-07-08T22:51:09.003Z,67.40
2017-07-08T22:53:37.199Z,67.40
2017-07-08T22:56:05.419Z,67.60
2017-07-08T22:58:33.625Z,66.60
2017-07-08T23:01:01.870Z,66.70
2017-07-08T23:03:30.062Z,65.90
2017-07-08T23:05:58.288Z,66.10
2017-07-08T23:08:27.266Z,65.60
2017-07-08T23:10:55.468Z,65.60
2017-07-08T23:13:23.693Z,66.60
2017-07-08T23:15:52.010Z,65.90
2017-07-08T23:18:20.226Z,66.10
2017-07-08T23:20:48.442Z,65.30
2017-07-08T23:23:16.640Z,67.90
2017-07-08T23:25:45.614Z,66.30
2017-07-08T23:28:13.833Z,66.30
2017-07-08T23:30:42.053Z,67.80
2017-07-08T23:33:10.253Z,67.30
2017-07-08T23:35:38.448Z,66.40
2017-07-08T23:38:06.719Z,66.90
2017-07-08T23:40:35.010Z,66.90
2017-07-08T23:43:03.226Z,66.60
2017-07-08T23:45:31.431Z,66.60
2017-07-08T23:47:59.630Z,67.50
2017-07-08T23:50:27.829Z,65.80
2017-07-08T23:52:56.047Z,67.20
2017-07-08T23:55:24.247Z,65.60
2017-07-08T23:57:52.520Z,65.60
